Time;durP1;ratioP1;P1;durP2;ratioP2;P2;SDS_P1;SDS_P2;PMS_P1;PMS_P2;Temp;Humidity;BMP_temperature;BMP_pressure;BME280_temperature;BME280_humidity;BME280_pressure;Samples;Min_cycle;Max_cycle;Signal;HPM_P1;HPM_P2
2022/07/16 00:02:57;;;;;;;6.15;3.53;;;15.60;99.90;;;;;;5063837;28;20029;-64
2022/07/16 00:05:24;;;;;;;7.55;4.10;;;15.60;99.90;;;;;;5061847;28;20044;-65
2022/07/16 00:07:52;;;;;;;7.10;3.72;;;15.50;99.90;;;;;;5064577;28;20128;-64
2022/07/16 00:10:19;;;;;;;8.80;4.00;;;15.50;99.90;;;;;;5068194;28;20060;-64
2022/07/16 00:12:47;;;;;;;8.15;3.60;;;15.50;99.90;;;;;;5066447;28;20044;-65
2022/07/16 00:15:14;;;;;;;8.45;3.75;;;15.50;99.90;;;;;;5067596;28;20070;-64
2022/07/16 00:17:42;;;;;;;6.93;3.60;;;15.40;99.90;;;;;;5068416;28;20558;-64
2022/07/16 00:20:10;;;;;;;7.50;3.40;;;15.40;99.90;;;;;;5069968;28;20212;-64
2022/07/16 00:22:38;;;;;;;6.55;4.10;;;15.30;99.90;;;;;;5068168;28;20043;-64
2022/07/16 00:25:06;;;;;;;6.35;3.75;;;15.30;99.90;;;;;;5068815;28;20087;-65
2022/07/16 00:27:33;;;;;;;8.23;3.38;;;15.20;99.90;;;;;;5068476;28;20404;-64
2022/07/16 00:30:00;;;;;;;8.52;3.25;;;15.20;99.90;;;;;;5067395;28;20049;-65
2022/07/16 00:32:27;;;;;;;6.63;3.33;;;15.20;99.90;;;;;;5051182;28;20091;-64
2022/07/16 00:34:55;;;;;;;7.90;3.85;;;15.20;99.90;;;;;;5056911;28;20123;-64
2022/07/16 00:37:22;;;;;;;7.38;3.30;;;15.20;99.90;;;;;;5046035;28;20601;-64
2022/07/16 00:39:49;;;;;;;9.10;3.60;;;15.10;99.90;;;;;;5064882;28;20136;-64
2022/07/16 00:42:17;;;;;;;6.18;3.85;;;15.10;99.90;;;;;;5069466;28;20040;-64
2022/07/16 00:44:44;;;;;;;6.78;3.78;;;15.00;99.90;;;;;;5068438;28;20033;-64
2022/07/16 00:47:11;;;;;;;6.22;3.20;;;15.00;99.90;;;;;;5067070;28;20840;-64
2022/07/16 00:49:39;;;;;;;6.38;3.40;;;15.00;99.90;;;;;;5069202;28;20040;-64
2022/07/16 00:52:06;;;;;;;6.10;3.70;;;14.90;99.90;;;;;;5067181;28;20139;-64
2022/07/16 00:54:34;;;;;;;6.63;3.20;;;14.90;99.90;;;;;;5068253;28;20071;-63
2022/07/16 00:57:01;;;;;;;9.70;3.80;;;14.90;99.90;;;;;;5054861;28;20545;-64
2022/07/16 00:59:28;;;;;;;6.40;4.00;;;14.90;99.90;;;;;;5062785;28;20076;-65
2022/07/16 01:01:56;;;;;;;7.88;3.85;;;14.80;99.90;;;;;;5064772;28;20399;-64
2022/07/16 01:04:23;;;;;;;8.27;4.03;;;14.80;99.90;;;;;;5050043;28;20045;-64
2022/07/16 01:06:51;;;;;;;9.68;4.32;;;14.80;99.90;;;;;;5064020;28;20515;-63
2022/07/16 01:09:20;;;;;;;6.43;3.47;;;14.70;99.90;;;;;;5048083;28;20049;-63
2022/07/16 01:11:47;;;;;;;9.77;4.10;;;14.70;99.90;;;;;;5051735;28;20052;-64
2022/07/16 01:14:15;;;;;;;5.68;3.53;;;14.70;99.90;;;;;;5058660;28;20051;-64
2022/07/16 01:16:43;;;;;;;7.35;3.88;;;14.70;99.90;;;;;;5057670;28;20048;-64
2022/07/16 01:19:12;;;;;;;10.07;4.45;;;14.60;99.90;;;;;;5069195;28;20701;-63
2022/07/16 01:21:40;;;;;;;5.57;3.50;;;14.60;99.90;;;;;;5067542;28;20079;-64
2022/07/16 01:24:07;;;;;;;8.07;4.10;;;14.60;99.90;;;;;;5064560;28;20430;-64
2022/07/16 01:26:35;;;;;;;9.32;4.40;;;14.50;99.90;;;;;;5067696;28;20464;-64
2022/07/16 01:29:03;;;;;;;9.02;4.38;;;14.50;99.90;;;;;;5057150;28;20131;-65
2022/07/16 01:31:30;;;;;;;7.47;4.05;;;14.50;99.90;;;;;;5060102;28;20052;-65
2022/07/16 01:36:52;;;;;;;11.15;4.25;;;14.40;99.90;;;;;;5048806;28;20052;-64
2022/07/16 01:39:21;;;;;;;6.85;4.25;;;14.40;99.90;;;;;;5048287;28;20434;-64
2022/07/16 01:41:50;;;;;;;6.40;3.72;;;14.40;99.90;;;;;;5047495;28;20103;-64
2022/07/16 01:44:17;;;;;;;7.97;4.20;;;14.30;99.90;;;;;;5060258;28;20095;-64
2022/07/16 01:46:45;;;;;;;7.13;3.95;;;14.30;99.90;;;;;;5059065;28;20483;-65
2022/07/16 01:49:12;;;;;;;8.70;4.32;;;14.20;99.90;;;;;;5064679;28;20043;-64
2022/07/16 01:51:41;;;;;;;7.65;4.05;;;14.20;99.90;;;;;;5064011;28;20059;-64
2022/07/16 01:54:08;;;;;;;7.22;4.10;;;14.20;99.90;;;;;;5060668;28;20080;-64
2022/07/16 01:56:36;;;;;;;7.28;4.13;;;14.20;99.90;;;;;;5067985;28;20482;-64
2022/07/16 01:59:03;;;;;;;8.50;4.53;;;14.20;99.90;;;;;;5068204;28;20056;-64
2022/07/16 02:01:31;;;;;;;8.32;4.28;;;14.20;99.90;;;;;;5067872;28;20076;-64
2022/07/16 02:03:58;;;;;;;9.43;4.50;;;14.20;99.90;;;;;;5053763;28;20060;-65
2022/07/16 02:06:26;;;;;;;9.70;4.10;;;14.20;99.90;;;;;;5061453;28;20083;-63
2022/07/16 02:08:54;;;;;;;8.25;4.20;;;14.10;99.90;;;;;;5066986;28;20132;-66
2022/07/16 02:11:21;;;;;;;6.68;4.07;;;14.10;99.90;;;;;;5063869;28;20541;-64
2022/07/16 02:13:48;;;;;;;12.52;4.97;;;14.00;99.90;;;;;;5068206;28;20464;-65
2022/07/16 02:16:16;;;;;;;10.23;4.32;;;14.00;99.90;;;;;;5061221;28;20048;-65
2022/07/16 02:18:44;;;;;;;7.30;4.45;;;14.00;99.90;;;;;;5060652;28;20099;-63
2022/07/16 02:21:11;;;;;;;9.20;4.97;;;13.90;99.90;;;;;;5063557;28;20094;-64
2022/07/16 02:23:39;;;;;;;6.55;4.63;;;13.90;99.90;;;;;;5068200;28;20070;-65
2022/07/16 02:26:09;;;;;;;7.47;4.53;;;13.90;99.90;;;;;;5068224;28;20045;-65
2022/07/16 02:28:36;;;;;;;7.88;4.72;;;13.90;99.90;;;;;;5043745;28;20139;-64
2022/07/16 02:31:04;;;;;;;9.60;4.70;;;13.90;99.90;;;;;;5062840;28;20586;-64
2022/07/16 02:33:31;;;;;;;10.35;4.68;;;13.80;99.90;;;;;;5059298;28;20137;-63
2022/07/16 02:35:59;;;;;;;7.88;4.78;;;13.80;99.90;;;;;;5062913;28;20045;-64
2022/07/16 02:38:26;;;;;;;7.53;4.55;;;13.80;99.90;;;;;;5047842;28;20474;-64
2022/07/16 02:40:53;;;;;;;9.60;4.55;;;13.80;99.90;;;;;;5063963;28;20041;-65
2022/07/16 02:43:21;;;;;;;6.78;4.30;;;13.80;99.90;;;;;;5055154;28;20491;-63
2022/07/16 02:45:48;;;;;;;7.22;4.70;;;13.80;99.90;;;;;;5065691;28;20071;-64
2022/07/16 02:48:15;;;;;;;7.28;4.60;;;13.70;99.90;;;;;;5063118;28;20049;-64
2022/07/16 02:50:43;;;;;;;9.70;4.53;;;13.70;99.90;;;;;;5057656;28;20574;-64
2022/07/16 02:53:10;;;;;;;7.82;4.60;;;13.70;99.90;;;;;;5066515;28;20486;-64
2022/07/16 02:55:38;;;;;;;9.05;4.30;;;13.70;99.90;;;;;;5063111;28;20409;-64
2022/07/16 02:58:05;;;;;;;7.50;4.13;;;13.70;99.90;;;;;;5054457;28;20047;-63
2022/07/16 03:00:32;;;;;;;7.88;4.40;;;13.80;99.90;;;;;;5055005;28;20079;-64
2022/07/16 03:03:00;;;;;;;7.82;3.90;;;13.70;99.90;;;;;;5068977;28;20036;-65
2022/07/16 03:05:27;;;;;;;7.85;4.25;;;13.70;99.90;;;;;;5055461;28;20109;-65
2022/07/16 03:07:54;;;;;;;6.70;4.00;;;13.70;99.90;;;;;;5071027;28;20479;-64
2022/07/16 03:10:22;;;;;;;7.95;4.20;;;13.70;99.90;;;;;;5064698;28;20803;-64
2022/07/16 03:12:49;;;;;;;7.40;4.63;;;13.70;99.90;;;;;;5054007;28;20037;-64
2022/07/16 03:15:17;;;;;;;8.52;4.63;;;13.60;99.90;;;;;;5068587;28;20640;-63
2022/07/16 03:17:44;;;;;;;6.93;4.53;;;13.60;99.90;;;;;;5069649;28;20082;-64
2022/07/16 03:20:12;;;;;;;8.95;4.85;;;13.60;99.90;;;;;;5056978;28;20455;-64
2022/07/16 03:22:47;;;;;;;10.32;4.78;;;13.50;99.90;;;;;;5066331;28;20522;-64
2022/07/16 03:25:15;;;;;;;7.90;4.85;;;13.60;99.90;;;;;;5063774;28;20919;-64
2022/07/16 03:27:43;;;;;;;8.23;4.90;;;13.50;99.90;;;;;;5069406;28;20064;-65
2022/07/16 03:30:12;;;;;;;8.10;4.63;;;13.50;99.90;;;;;;5063608;28;20044;-65
2022/07/16 03:32:39;;;;;;;6.82;4.18;;;13.50;99.90;;;;;;5068592;28;20580;-64
2022/07/16 03:35:09;;;;;;;8.38;4.28;;;13.40;99.90;;;;;;5058266;28;20051;-64
2022/07/16 03:40:22;;;;;;;7.18;4.25;;;13.50;99.90;;;;;;5049518;28;20411;-65
2022/07/16 03:42:50;;;;;;;9.00;4.88;;;13.50;99.90;;;;;;5067307;28;20071;-65
2022/07/16 03:45:17;;;;;;;7.13;4.15;;;13.50;99.90;;;;;;5069793;28;20052;-65
2022/07/16 03:47:45;;;;;;;9.02;4.97;;;13.50;99.90;;;;;;5068504;28;20053;-64
2022/07/16 03:50:12;;;;;;;7.22;4.57;;;13.50;99.90;;;;;;5066922;28;20467;-65
2022/07/16 03:52:44;;;;;;;9.98;5.10;;;13.50;99.90;;;;;;5065524;28;20040;-65
2022/07/16 03:55:12;;;;;;;7.60;4.57;;;13.50;99.90;;;;;;5062493;28;20494;-65
2022/07/16 03:57:40;;;;;;;9.32;5.50;;;13.60;99.90;;;;;;5069522;28;20063;-64
2022/07/16 04:00:08;;;;;;;11.48;4.68;;;13.60;99.90;;;;;;5070528;28;20067;-63
2022/07/16 04:02:35;;;;;;;8.35;4.90;;;13.60;99.90;;;;;;5065562;28;20060;-64
2022/07/16 04:05:03;;;;;;;10.32;4.93;;;13.70;99.90;;;;;;5053444;28;20474;-64
2022/07/16 04:07:30;;;;;;;7.97;4.35;;;13.60;99.90;;;;;;5061327;28;20644;-63
2022/07/16 04:09:58;;;;;;;8.45;4.35;;;13.70;99.90;;;;;;5070003;28;20082;-65
2022/07/16 04:12:25;;;;;;;11.88;5.85;;;13.70;99.90;;;;;;5058975;28;20073;-65
2022/07/16 04:14:53;;;;;;;10.68;5.60;;;13.60;99.90;;;;;;5066021;28;20495;-64
2022/07/16 04:17:20;;;;;;;9.52;5.53;;;13.60;99.90;;;;;;5057615;28;20052;-65
2022/07/16 04:19:47;;;;;;;8.98;5.10;;;13.70;99.90;;;;;;5070175;28;20670;-65
2022/07/16 04:22:15;;;;;;;10.52;5.05;;;13.70;99.90;;;;;;5055681;28;20471;-63
2022/07/16 04:24:42;;;;;;;6.78;4.90;;;13.70;99.90;;;;;;5062236;28;20040;-64
2022/07/16 04:27:10;;;;;;;9.68;4.68;;;13.70;99.90;;;;;;5069674;28;20051;-64
2022/07/16 04:29:37;;;;;;;10.18;4.47;;;13.70;99.90;;;;;;5063398;28;20055;-64
2022/07/16 04:32:05;;;;;;;8.02;4.47;;;13.70;99.90;;;;;;5060089;28;20558;-64
2022/07/16 04:34:32;;;;;;;7.68;4.43;;;13.50;99.90;;;;;;5060789;28;20094;-64
2022/07/16 04:37:00;;;;;;;13.30;4.95;;;13.50;99.90;;;;;;5069519;28;20122;-64
2022/07/16 04:39:27;;;;;;;9.80;4.43;;;13.60;99.90;;;;;;5065663;28;20541;-65
2022/07/16 04:41:54;;;;;;;8.38;3.92;;;13.70;99.90;;;;;;5068262;28;20147;-63
2022/07/16 04:44:22;;;;;;;8.93;4.45;;;13.70;99.90;;;;;;5059135;28;20048;-65
2022/07/16 04:46:50;;;;;;;10.57;5.20;;;13.80;99.90;;;;;;5066063;28;20460;-66
2022/07/16 04:49:17;;;;;;;8.57;4.93;;;13.80;99.90;;;;;;5067431;28;20359;-64
2022/07/16 04:51:45;;;;;;;9.65;5.72;;;13.90;99.90;;;;;;5069278;28;20526;-65
2022/07/16 04:54:12;;;;;;;9.02;4.72;;;13.90;99.90;;;;;;5058632;28;20037;-65
2022/07/16 04:56:39;;;;;;;9.50;5.07;;;13.90;99.90;;;;;;5065182;28;20040;-65
2022/07/16 04:59:07;;;;;;;8.98;5.28;;;13.90;99.90;;;;;;5054007;28;20406;-65
2022/07/16 05:01:34;;;;;;;12.65;5.57;;;13.80;99.90;;;;;;5047298;28;20363;-65
2022/07/16 05:04:02;;;;;;;9.20;5.03;;;13.80;99.90;;;;;;5046463;28;20095;-63
2022/07/16 05:06:29;;;;;;;9.73;5.47;;;13.90;99.90;;;;;;5051358;28;20521;-63
2022/07/16 05:08:57;;;;;;;9.23;5.10;;;14.00;99.90;;;;;;5048267;28;20491;-64
2022/07/16 05:11:24;;;;;;;9.85;5.95;;;13.90;99.90;;;;;;5064186;28;20373;-64
2022/07/16 05:13:53;;;;;;;8.18;5.40;;;13.90;99.90;;;;;;5058510;28;20071;-64
2022/07/16 05:16:22;;;;;;;10.70;5.50;;;14.10;99.90;;;;;;5067340;28;20566;-64
2022/07/16 05:18:51;;;;;;;9.15;4.93;;;14.10;99.90;;;;;;5066640;28;20411;-65
2022/07/16 05:21:18;;;;;;;11.25;5.32;;;14.30;99.90;;;;;;5061924;28;20571;-64
2022/07/16 05:23:47;;;;;;;7.70;5.13;;;14.30;99.90;;;;;;5065034;28;20044;-64
2022/07/16 05:26:15;;;;;;;10.95;5.00;;;14.30;99.90;;;;;;5063572;28;20152;-65
2022/07/16 05:28:42;;;;;;;10.48;5.03;;;14.40;99.90;;;;;;5063175;28;20477;-64
2022/07/16 05:31:09;;;;;;;9.07;4.93;;;14.50;99.90;;;;;;5050986;28;20045;-64
2022/07/16 05:33:37;;;;;;;9.00;4.80;;;14.60;99.90;;;;;;5054075;28;20601;-64
2022/07/16 05:36:04;;;;;;;9.02;5.00;;;14.70;99.90;;;;;;5062981;28;20055;-64
2022/07/16 05:38:32;;;;;;;10.10;4.55;;;14.70;99.90;;;;;;5061952;28;20411;-65
2022/07/16 05:40:59;;;;;;;6.65;3.80;;;14.80;99.90;;;;;;5033675;28;21004;-64
2022/07/16 05:43:27;;;;;;;9.57;4.82;;;14.90;99.90;;;;;;5036976;28;20063;-64
2022/07/16 05:45:55;;;;;;;11.70;4.97;;;15.00;99.90;;;;;;5058044;28;20117;-64
2022/07/16 05:48:23;;;;;;;8.25;4.32;;;15.00;99.90;;;;;;5054410;28;20456;-64
2022/07/16 05:50:54;;;;;;;10.55;4.70;;;15.10;99.90;;;;;;5062926;28;20068;-64
2022/07/16 05:53:22;;;;;;;10.10;4.55;;;15.10;99.90;;;;;;5060098;28;20041;-65
2022/07/16 05:55:50;;;;;;;8.38;4.93;;;15.20;99.90;;;;;;5050557;28;20068;-65
2022/07/16 05:58:17;;;;;;;10.32;4.68;;;15.30;99.90;;;;;;5066092;28;20041;-67
2022/07/16 06:00:45;;;;;;;9.38;4.30;;;15.30;99.90;;;;;;5067221;28;20494;-65
2022/07/16 06:03:12;;;;;;;13.07;5.15;;;15.40;99.90;;;;;;5058634;28;20044;-66
2022/07/16 06:05:40;;;;;;;6.72;4.15;;;15.40;99.90;;;;;;5056768;28;20033;-65
2022/07/16 06:08:07;;;;;;;11.65;4.25;;;15.50;99.90;;;;;;5062551;28;20041;-65
2022/07/16 06:10:34;;;;;;;9.55;4.00;;;15.60;99.90;;;;;;5057834;28;20076;-64
2022/07/16 06:13:02;;;;;;;7.60;4.40;;;15.80;99.90;;;;;;5067856;28;20503;-65
2022/07/16 06:15:29;;;;;;;8.32;4.40;;;15.80;99.90;;;;;;5060010;28;20514;-64
2022/07/16 06:17:56;;;;;;;9.23;3.97;;;15.90;99.90;;;;;;5050926;28;20055;-64
2022/07/16 06:20:24;;;;;;;9.65;4.22;;;16.00;99.90;;;;;;5070911;28;20071;-64
2022/07/16 06:22:54;;;;;;;10.75;4.38;;;16.10;99.90;;;;;;5066201;28;20041;-64
2022/07/16 06:25:22;;;;;;;13.65;4.35;;;16.20;99.90;;;;;;5069839;28;20485;-64
2022/07/16 06:27:50;;;;;;;9.50;4.13;;;16.30;99.90;;;;;;5062233;28;20037;-64
2022/07/16 06:30:17;;;;;;;9.18;4.00;;;16.40;99.90;;;;;;5058736;28;20041;-65
2022/07/16 06:32:45;;;;;;;7.18;3.60;;;16.50;99.90;;;;;;5070635;28;20079;-65
2022/07/16 06:35:13;;;;;;;8.82;3.80;;;16.60;99.90;;;;;;5058550;28;20359;-65
2022/07/16 06:37:40;;;;;;;15.30;3.10;;;16.60;99.90;;;;;;5066863;28;20123;-65
2022/07/16 06:40:08;;;;;;;7.03;3.17;;;16.50;99.90;;;;;;5065861;28;20059;-64
2022/07/16 06:42:36;;;;;;;7.55;3.20;;;16.60;99.90;;;;;;5065308;28;20107;-65
2022/07/16 06:45:08;;;;;;;8.48;2.92;;;16.50;99.90;;;;;;5070097;28;20044;-65
2022/07/16 06:47:35;;;;;;;5.95;3.08;;;16.60;99.90;;;;;;5073952;28;20037;-65
2022/07/16 06:50:03;;;;;;;6.15;2.85;;;16.70;99.90;;;;;;5071738;28;20587;-64
2022/07/16 06:52:30;;;;;;;7.90;2.85;;;16.70;99.90;;;;;;5049548;28;20526;-65
2022/07/16 06:54:57;;;;;;;8.63;2.88;;;16.90;99.90;;;;;;5067742;28;20549;-65
2022/07/16 06:57:25;;;;;;;6.50;3.25;;;17.00;99.90;;;;;;5070089;28;20052;-64
2022/07/16 06:59:52;;;;;;;10.73;3.15;;;17.10;99.90;;;;;;5068606;28;20040;-66
2022/07/16 07:02:19;;;;;;;9.18;3.30;;;17.20;99.90;;;;;;5063116;28;20098;-64
2022/07/16 07:04:47;;;;;;;6.95;3.30;;;17.30;99.90;;;;;;5050987;28;20047;-65
2022/07/16 07:07:14;;;;;;;11.73;3.10;;;17.30;99.90;;;;;;5061743;28;20036;-65
2022/07/16 07:09:42;;;;;;;9.52;3.67;;;17.40;99.90;;;;;;5069254;28;20164;-64
2022/07/16 07:12:10;;;;;;;11.50;3.67;;;17.40;99.90;;;;;;5067495;28;20106;-65
2022/07/16 07:14:37;;;;;;;14.18;4.05;;;17.60;99.90;;;;;;5055813;28;20556;-65
2022/07/16 07:17:05;;;;;;;8.52;3.40;;;17.50;99.90;;;;;;5064580;28;20040;-64
2022/07/16 07:19:32;;;;;;;9.57;3.53;;;17.60;99.90;;;;;;5060806;28;20064;-64
2022/07/16 07:22:00;;;;;;;7.88;3.47;;;17.60;99.90;;;;;;5065473;28;20045;-65
2022/07/16 07:24:28;;;;;;;6.82;3.40;;;17.80;99.90;;;;;;5054439;28;20051;-66
2022/07/16 07:27:13;;;;;;;7.15;3.40;;;17.80;99.90;;;;;;5052118;28;20061;-65
2022/07/16 07:29:40;;;;;;;7.47;3.40;;;18.00;99.90;;;;;;5052833;28;20120;-65
2022/07/16 07:32:07;;;;;;;6.47;2.90;;;18.10;99.90;;;;;;5054568;28;20051;-65
2022/07/16 07:34:35;;;;;;;9.57;3.40;;;18.10;99.90;;;;;;5053609;28;20127;-66
2022/07/16 07:37:02;;;;;;;8.13;3.33;;;18.20;99.90;;;;;;5065095;28;20049;-66
2022/07/16 07:39:29;;;;;;;8.38;3.50;;;18.20;99.90;;;;;;5052870;28;20483;-64
2022/07/16 07:41:57;;;;;;;8.75;3.20;;;18.30;99.90;;;;;;5053601;28;20041;-65
2022/07/16 07:44:24;;;;;;;10.07;3.33;;;18.50;99.90;;;;;;5052492;28;20094;-64
2022/07/16 07:46:51;;;;;;;7.10;2.45;;;18.70;99.90;;;;;;5053696;28;20060;-65
2022/07/16 07:49:19;;;;;;;7.93;2.72;;;18.70;99.90;;;;;;5060030;28;20165;-65
2022/07/16 07:51:46;;;;;;;5.80;2.60;;;18.80;99.90;;;;;;5053312;28;20603;-65
2022/07/16 07:54:14;;;;;;;4.68;2.00;;;19.00;99.90;;;;;;5058901;28;20077;-65
2022/07/16 07:56:41;;;;;;;7.72;2.80;;;18.90;99.90;;;;;;5053717;28;20045;-65
2022/07/16 07:59:08;;;;;;;7.68;2.15;;;19.00;99.90;;;;;;5059193;28;20040;-67
2022/07/16 08:01:35;;;;;;;5.07;2.20;;;19.20;99.90;;;;;;5059262;28;20510;-65
2022/07/16 08:04:04;;;;;;;7.75;2.38;;;19.20;99.90;;;;;;5056967;28;20614;-64
2022/07/16 08:06:31;;;;;;;10.38;3.03;;;19.30;99.90;;;;;;5069422;28;20505;-66
2022/07/16 08:08:58;;;;;;;6.18;2.35;;;19.40;99.90;;;;;;5058028;28;20041;-65
2022/07/16 08:11:32;;;;;;;5.38;2.03;;;19.60;99.90;;;;;;5056757;28;20140;-65
2022/07/16 08:14:00;;;;;;;5.30;2.42;;;19.60;99.90;;;;;;5055163;28;20025;-64
2022/07/16 08:16:47;;;;;;;9.57;2.63;;;19.80;99.90;;;;;;5061734;28;20529;-65
2022/07/16 08:19:15;;;;;;;7.20;2.42;;;19.90;99.90;;;;;;5055140;28;20506;-64
2022/07/16 08:21:42;;;;;;;7.45;2.20;;;20.00;99.90;;;;;;5059642;28;20041;-67
2022/07/16 08:26:55;;;;;;;5.93;2.20;;;20.30;99.90;;;;;;5066685;28;20136;-64
2022/07/16 08:29:22;;;;;;;9.82;2.15;;;20.30;99.90;;;;;;5068589;28;20051;-65
2022/07/16 08:31:50;;;;;;;6.35;1.80;;;20.30;99.90;;;;;;5056831;28;20040;-64
2022/07/16 08:34:20;;;;;;;7.80;1.88;;;20.30;99.90;;;;;;5052036;28;20135;-66
2022/07/16 08:36:48;;;;;;;6.40;1.50;;;20.20;99.90;;;;;;5058691;28;20068;-65
2022/07/16 08:39:16;;;;;;;7.25;1.48;;;20.30;99.90;;;;;;5063073;28;20510;-65
2022/07/16 08:41:43;;;;;;;7.43;1.70;;;20.50;99.90;;;;;;5058234;28;20045;-65
2022/07/16 08:44:12;;;;;;;6.88;1.83;;;20.50;99.90;;;;;;5053807;28;20063;-66
2022/07/16 08:46:41;;;;;;;3.88;1.60;;;20.60;99.90;;;;;;5051019;28;20048;-65
2022/07/16 08:49:08;;;;;;;4.32;1.80;;;20.60;99.90;;;;;;5052023;28;20056;-66
2022/07/16 08:51:37;;;;;;;4.22;1.42;;;20.80;99.90;;;;;;5032039;28;20098;-65
2022/07/16 08:54:21;;;;;;;7.07;2.13;;;20.80;99.90;;;;;;5062349;28;20135;-66
2022/07/16 08:56:50;;;;;;;5.55;1.55;;;20.80;99.90;;;;;;5060874;28;20053;-64
2022/07/16 08:59:18;;;;;;;5.80;1.83;;;20.90;99.90;;;;;;5056219;28;20051;-65
2022/07/16 09:01:45;;;;;;;6.53;1.75;;;20.80;99.90;;;;;;5057822;28;20037;-64
2022/07/16 09:04:12;;;;;;;4.30;1.55;;;20.80;99.90;;;;;;5047030;28;20200;-65
2022/07/16 09:06:40;;;;;;;5.55;1.73;;;20.90;99.90;;;;;;5052703;28;20037;-65
2022/07/16 09:09:07;;;;;;;6.05;1.65;;;20.90;99.90;;;;;;5049729;28;20383;-66
2022/07/16 09:11:35;;;;;;;4.63;1.60;;;20.90;99.90;;;;;;5051476;28;20043;-66
2022/07/16 09:14:09;;;;;;;4.68;1.60;;;20.90;99.90;;;;;;5049508;28;20033;-66
2022/07/16 09:16:45;;;;;;;3.95;1.58;;;21.00;99.90;;;;;;5064191;28;20101;-67
2022/07/16 09:19:18;;;;;;;3.80;1.50;;;21.00;99.90;;;;;;5065972;28;20052;-66
2022/07/16 09:22:12;;;;;;;4.47;1.50;;;21.10;99.90;;;;;;5067620;28;20135;-66
2022/07/16 09:24:47;;;;;;;3.85;1.42;;;21.30;99.90;;;;;;5060736;28;20044;-64
2022/07/16 09:27:17;;;;;;;3.78;1.40;;;21.30;99.90;;;;;;5056957;28;20199;-65
2022/07/16 09:29:45;;;;;;;6.25;1.50;;;21.40;99.90;;;;;;5060307;28;20094;-66
2022/07/16 09:32:26;;;;;;;3.88;1.40;;;21.40;99.80;;;;;;5051794;28;20574;-65
2022/07/16 09:35:13;;;;;;;6.47;1.75;;;21.50;99.90;;;;;;5055936;28;20337;-66
2022/07/16 09:37:56;;;;;;;6.60;1.50;;;21.50;99.90;;;;;;5065478;28;20506;-64
2022/07/16 09:40:34;;;;;;;;;;;21.70;99.90;;;;;;5062591;28;20049;-67
2022/07/16 09:43:18;;;;;;;3.95;1.75;;;21.80;99.90;;;;;;5066978;28;20010;-65
2022/07/16 09:45:49;;;;;;;5.35;1.75;;;22.00;99.60;;;;;;5068200;28;20102;-67
2022/07/16 09:48:29;;;;;;;4.65;1.65;;;22.30;99.40;;;;;;5071249;28;20163;-64
2022/07/16 09:51:11;;;;;;;5.13;1.90;;;22.30;98.70;;;;;;5055827;28;20045;-66
2022/07/16 09:53:40;;;;;;;5.18;1.73;;;22.40;98.50;;;;;;5065699;28;20125;-63
2022/07/16 09:56:11;;;;;;;6.13;1.73;;;22.30;98.70;;;;;;5061008;28;20094;-66
2022/07/16 09:58:39;;;;;;;4.65;1.42;;;22.50;98.50;;;;;;5060513;28;20053;-66
2022/07/16 10:01:07;;;;;;;5.70;1.60;;;22.70;98.00;;;;;;5050885;28;20056;-65
2022/07/16 10:03:35;;;;;;;6.82;1.77;;;22.90;97.80;;;;;;5050551;28;20045;-64
2022/07/16 10:06:03;;;;;;;5.28;1.70;;;23.10;97.40;;;;;;5043877;28;20045;-64
2022/07/16 10:08:32;;;;;;;6.40;1.55;;;23.10;97.50;;;;;;5058157;28;20033;-66
2022/07/16 10:11:03;;;;;;;5.87;1.83;;;23.30;97.60;;;;;;5051191;28;20095;-64
2022/07/16 10:13:33;;;;;;;5.47;1.50;;;23.50;96.60;;;;;;5060800;28;20043;-66
2022/07/16 10:16:02;;;;;;;3.47;1.45;;;23.30;96.60;;;;;;5063177;28;20405;-66
2022/07/16 10:18:32;;;;;;;5.53;1.42;;;23.30;96.40;;;;;;5067823;28;20052;-66
2022/07/16 10:21:12;;;;;;;3.72;1.20;;;23.20;95.00;;;;;;5064558;28;20131;-66
2022/07/16 10:23:51;;;;;;;3.88;1.55;;;23.40;94.60;;;;;;5051568;28;20505;-67
2022/07/16 10:26:20;;;;;;;4.28;1.38;;;23.50;94.60;;;;;;5056761;28;20056;-68
2022/07/16 10:28:54;;;;;;;4.00;1.40;;;23.50;94.20;;;;;;5060291;28;20037;-67
2022/07/16 10:31:38;;;;;;;3.88;1.50;;;23.60;93.90;;;;;;5063214;28;20048;-66
2022/07/16 10:34:16;;;;;;;3.65;1.52;;;24.20;93.60;;;;;;5062162;28;20037;-65
2022/07/16 10:36:55;;;;;;;4.85;1.83;;;24.60;92.70;;;;;;5056713;28;20517;-65
2022/07/16 10:39:24;;;;;;;2.67;1.33;;;24.90;91.20;;;;;;5065426;28;20075;-64
2022/07/16 10:41:58;;;;;;;3.13;1.23;;;25.00;90.70;;;;;;5055247;28;20076;-67
2022/07/16 10:44:42;;;;;;;3.17;1.30;;;24.80;91.10;;;;;;5056159;28;20039;-66
2022/07/16 10:47:10;;;;;;;3.80;1.52;;;24.50;91.20;;;;;;5064339;28;20090;-67
2022/07/16 10:49:42;;;;;;;;;;;24.50;91.10;;;;;;5070492;28;20529;-67
2022/07/16 10:52:14;;;;;;;4.72;1.60;;;24.60;90.60;;;;;;5056879;28;20369;-66
2022/07/16 10:55:01;;;;;;;5.00;1.50;;;24.90;91.00;;;;;;5046630;28;20041;-67
2022/07/16 10:57:37;;;;;;;5.97;1.50;;;25.30;90.50;;;;;;5049293;28;20087;-66
2022/07/16 11:00:06;;;;;;;3.53;1.48;;;25.20;90.00;;;;;;5051588;28;20061;-66
2022/07/16 11:02:41;;;;;;;2.30;1.20;;;25.10;90.20;;;;;;5050448;28;20037;-67
2022/07/16 11:05:31;;;;;;;4.32;1.58;;;24.70;90.50;;;;;;5062222;28;20047;-68
2022/07/16 11:08:10;;;;;;;5.40;1.40;;;25.20;90.60;;;;;;5070334;28;20045;-65
2022/07/16 11:10:40;;;;;;;3.63;1.30;;;25.40;89.90;;;;;;5057410;28;20059;-65
2022/07/16 11:13:16;;;;;;;3.20;1.50;;;25.30;90.00;;;;;;5069225;28;20597;-65
2022/07/16 11:15:43;;;;;;;2.80;1.20;;;25.60;90.00;;;;;;5064502;28;20115;-67
2022/07/16 11:18:15;;;;;;;3.45;1.40;;;25.70;89.50;;;;;;5052041;28;20045;-66
2022/07/16 11:20:48;;;;;;;4.13;1.63;;;25.50;89.00;;;;;;5056996;28;20131;-66
2022/07/16 11:23:18;;;;;;;4.57;1.58;;;25.80;89.80;;;;;;5052449;28;20049;-66
2022/07/16 11:25:59;;;;;;;4.65;1.73;;;25.70;89.40;;;;;;5058912;28;20341;-66
2022/07/16 11:28:27;;;;;;;8.73;2.80;;;25.80;88.40;;;;;;5054860;28;20053;-68
2022/07/16 11:31:07;;;;;;;3.92;1.67;;;26.20;87.90;;;;;;5060361;28;20287;-67
2022/07/16 11:33:53;;;;;;;3.85;1.35;;;26.40;87.10;;;;;;5060961;28;20098;-67
2022/07/16 11:36:25;;;;;;;6.22;1.98;;;26.20;85.40;;;;;;5051117;28;20474;-68
2022/07/16 11:39:12;;;;;;;;;;;26.30;85.90;;;;;;5067493;28;20036;-67
2022/07/16 11:41:45;;;;;;;5.88;1.63;;;26.40;85.30;;;;;;5056226;28;19925;-66
2022/07/16 11:44:24;;;;;;;4.03;1.50;;;26.00;85.70;;;;;;5029046;28;20146;-66
2022/07/16 11:46:54;;;;;;;4.65;1.80;;;25.80;86.30;;;;;;5066140;28;20132;-66
2022/07/16 11:49:42;;;;;;;6.63;1.58;;;25.40;86.20;;;;;;5057581;28;20048;-66
2022/07/16 11:52:26;;;;;;;;;;;25.20;86.70;;;;;;5069059;28;20105;-67
2022/07/16 11:54:57;;;;;;;2.90;1.25;;;25.20;86.80;;;;;;5068952;28;19930;-66
2022/07/16 11:57:25;;;;;;;3.80;1.50;;;25.50;86.40;;;;;;5060882;28;20045;-67
2022/07/16 11:59:54;;;;;;;3.08;1.55;;;25.10;86.70;;;;;;5063738;28;20044;-67
2022/07/16 12:02:27;;;;;;;5.35;1.80;;;25.20;86.90;;;;;;5063804;28;20048;-65
2022/07/16 12:04:59;;;;;;;3.70;1.60;;;25.40;87.20;;;;;;5053786;28;20403;-66
2022/07/16 12:07:27;;;;;;;3.17;1.40;;;25.10;87.90;;;;;;5070556;28;20044;-67
2022/07/16 12:09:57;;;;;;;3.22;1.75;;;25.50;86.50;;;;;;5059282;28;20451;-66
2022/07/16 12:12:27;;;;;;;5.80;1.38;;;25.70;87.50;;;;;;5069513;28;20086;-66
2022/07/16 12:14:56;;;;;;;5.05;1.63;;;25.60;86.60;;;;;;5066317;28;20514;-65
2022/07/16 12:17:44;;;;;;;4.63;1.98;;;25.60;85.90;;;;;;5061653;28;20122;-65
2022/07/16 12:20:22;;;;;;;3.47;1.30;;;25.70;85.90;;;;;;5057267;28;20105;-65
2022/07/16 12:23:05;;;;;;;6.18;1.90;;;25.20;86.10;;;;;;5062981;28;20063;-66
2022/07/16 12:25:35;;;;;;;4.72;1.83;;;25.30;87.00;;;;;;5066450;28;20047;-66
2022/07/16 12:28:17;;;;;;;2.80;1.27;;;26.00;86.10;;;;;;5064473;28;20090;-66
2022/07/16 12:30:52;;;;;;;5.20;1.77;;;26.70;83.80;;;;;;5065708;28;20040;-68
2022/07/16 12:33:22;;;;;;;6.45;1.70;;;27.90;83.20;;;;;;5064101;28;20051;-66
2022/07/16 12:36:07;;;;;;;2.67;1.40;;;27.40;81.70;;;;;;5062122;28;20059;-66
2022/07/16 12:39:02;;;;;;;5.07;1.73;;;26.50;82.60;;;;;;5065198;28;20048;-66
2022/07/16 12:41:45;;;;;;;3.78;2.00;;;27.10;82.30;;;;;;5062976;28;20044;-67
2022/07/16 12:44:16;;;;;;;5.18;1.85;;;27.30;80.80;;;;;;5069464;28;20064;-66
2022/07/16 12:46:44;;;;;;;2.75;1.45;;;28.10;81.60;;;;;;5050737;28;20372;-65
2022/07/16 12:49:25;;;;;;;9.40;1.60;;;28.40;78.70;;;;;;5063463;28;20050;-66
2022/07/16 12:51:59;;;;;;;4.88;1.58;;;28.40;78.40;;;;;;5069319;28;20032;-67
2022/07/16 12:58:47;;;;;;;4.70;1.67;;;28.80;78.00;;;;;;5060708;28;20045;-66
2022/07/16 13:00:04;;;;;;;3.42;1.40;;;29.40;73.60;;;;;;5067982;28;20379;-66
2022/07/16 13:02:31;;;;;;;3.22;1.55;;;28.40;74.10;;;;;;5068020;28;20033;-67
2022/07/16 13:04:59;;;;;;;2.80;1.30;;;27.90;75.50;;;;;;5063221;28;20051;-66
2022/07/16 13:07:26;;;;;;;4.80;1.60;;;28.10;75.00;;;;;;5068044;28;20149;-66
2022/07/16 13:09:53;;;;;;;5.60;1.73;;;27.40;76.60;;;;;;5056731;28;20115;-68
2022/07/16 13:12:21;;;;;;;5.53;1.40;;;27.20;77.80;;;;;;5067382;28;20086;-65